sensor_id;sensor_type;location;lat;lon;timestamp;pressure;altitude;pressure_sealevel;temperature;humidity
62697;BME280;48761;42.680;23.312;2023-04-29T00:02:03;94864.94;;;9.58;54.89
62697;BME280;48761;42.680;23.312;2023-04-29T00:04:29;94881.84;;;9.42;56.11
62697;BME280;48761;42.680;23.312;2023-04-29T00:06:55;94874.19;;;9.37;56.28
62697;BME280;48761;42.680;23.312;2023-04-29T00:09:21;94866.69;;;9.44;56.20
62697;BME280;48761;42.680;23.312;2023-04-29T00:11:47;94874.03;;;9.53;55.89
62697;BME280;48761;42.680;23.312;2023-04-29T00:14:12;94882.44;;;9.88;54.97
62697;BME280;48761;42.680;23.312;2023-04-29T00:16:39;94872.25;;;10.08;54.20
62697;BME280;48761;42.680;23.312;2023-04-29T00:19:04;94875.91;;;10.33;53.55
62697;BME280;48761;42.680;23.312;2023-04-29T00:21:30;94856.75;;;10.41;52.68
62697;BME280;48761;42.680;23.312;2023-04-29T00:23:56;94883.88;;;10.72;52.35
62697;BME280;48761;42.680;23.312;2023-04-29T00:26:22;94888.66;;;10.80;52.21
62697;BME280;48761;42.680;23.312;2023-04-29T00:28:48;94887.38;;;10.86;51.92
62697;BME280;48761;42.680;23.312;2023-04-29T00:31:14;94891.09;;;10.83;51.78
62697;BME280;48761;42.680;23.312;2023-04-29T00:33:40;94893.84;;;10.95;52.11
62697;BME280;48761;42.680;23.312;2023-04-29T00:36:06;94845.28;;;10.67;51.69
62697;BME280;48761;42.680;23.312;2023-04-29T00:38:32;94889.50;;;10.94;51.83
62697;BME280;48761;42.680;23.312;2023-04-29T00:40:58;94891.19;;;10.95;51.95
62697;BME280;48761;42.680;23.312;2023-04-29T00:43:24;94883.31;;;10.93;51.81
62697;BME280;48761;42.680;23.312;2023-04-29T00:45:50;94882.66;;;10.90;52.02
62697;BME280;48761;42.680;23.312;2023-04-29T00:48:16;94885.56;;;10.86;51.96
62697;BME280;48761;42.680;23.312;2023-04-29T00:50:42;94875.88;;;10.98;51.65
62697;BME280;48761;42.680;23.312;2023-04-29T00:53:09;94881.59;;;11.05;51.19
62697;BME280;48761;42.680;23.312;2023-04-29T00:55:36;94876.53;;;10.89;51.46
62697;BME280;48761;42.680;23.312;2023-04-29T00:58:01;94868.22;;;10.94;51.18
62697;BME280;48761;42.680;23.312;2023-04-29T01:00:27;94841.66;;;10.68;51.41
62697;BME280;48761;42.680;23.312;2023-04-29T01:02:53;94861.97;;;10.69;51.81
62697;BME280;48761;42.680;23.312;2023-04-29T01:05:19;94857.75;;;10.53;52.36
62697;BME280;48761;42.680;23.312;2023-04-29T01:10:52;94817.44;;;10.20;52.46
62697;BME280;48761;42.680;23.312;2023-04-29T01:13:30;94790.88;;;10.07;52.70
62697;BME280;48761;42.680;23.312;2023-04-29T01:16:03;94811.78;;;10.25;52.60
62697;BME280;48761;42.680;23.312;2023-04-29T01:18:47;94846.13;;;10.41;52.89
62697;BME280;48761;42.680;23.312;2023-04-29T01:21:14;94816.56;;;10.19;53.13
62697;BME280;48761;42.680;23.312;2023-04-29T01:23:40;94809.38;;;10.08;54.03
62697;BME280;48761;42.680;23.312;2023-04-29T01:26:06;94826.13;;;9.83;55.42
62697;BME280;48761;42.680;23.312;2023-04-29T01:28:49;94775.56;;;9.71;54.66
62697;BME280;48761;42.680;23.312;2023-04-29T01:31:37;94840.63;;;10.31;54.05
62697;BME280;48761;42.680;23.312;2023-04-29T01:34:10;94845.69;;;10.34;53.99
62697;BME280;48761;42.680;23.312;2023-04-29T01:37:03;94836.03;;;10.33;53.43
62697;BME280;48761;42.680;23.312;2023-04-29T01:39:44;94845.69;;;10.34;53.68
62697;BME280;48761;42.680;23.312;2023-04-29T01:42:23;94848.34;;;10.34;53.43
62697;BME280;48761;42.680;23.312;2023-04-29T01:44:50;94810.66;;;10.16;53.55
62697;BME280;48761;42.680;23.312;2023-04-29T01:47:17;94844.00;;;10.33;53.60
62697;BME280;48761;42.680;23.312;2023-04-29T01:49:44;94840.16;;;10.37;53.59
62697;BME280;48761;42.680;23.312;2023-04-29T01:52:10;94838.28;;;10.13;53.42
62697;BME280;48761;42.680;23.312;2023-04-29T01:54:36;94840.50;;;9.93;54.13
62697;BME280;48761;42.680;23.312;2023-04-29T01:57:02;94832.28;;;9.96;54.48
62697;BME280;48761;42.680;23.312;2023-04-29T01:59:28;94828.25;;;10.04;54.19
62697;BME280;48761;42.680;23.312;2023-04-29T02:01:54;94845.69;;;10.08;53.99
62697;BME280;48761;42.680;23.312;2023-04-29T02:04:20;94818.47;;;9.91;54.25
62697;BME280;48761;42.680;23.312;2023-04-29T02:06:46;94838.44;;;9.84;54.43
62697;BME280;48761;42.680;23.312;2023-04-29T02:09:13;94847.19;;;9.30;56.27
62697;BME280;48761;42.680;23.312;2023-04-29T02:11:38;94834.97;;;9.15;56.47
62697;BME280;48761;42.680;23.312;2023-04-29T02:14:04;94846.19;;;9.46;55.67
62697;BME280;48761;42.680;23.312;2023-04-29T02:16:30;94836.47;;;9.60;55.43
62697;BME280;48761;42.680;23.312;2023-04-29T02:18:56;94844.47;;;9.86;55.11
62697;BME280;48761;42.680;23.312;2023-04-29T02:21:22;94811.66;;;9.74;54.54
62697;BME280;48761;42.680;23.312;2023-04-29T02:23:48;94810.16;;;9.57;54.79
62697;BME280;48761;42.680;23.312;2023-04-29T02:26:14;94801.00;;;9.61;54.33
62697;BME280;48761;42.680;23.312;2023-04-29T02:28:40;94819.41;;;9.64;54.91
62697;BME280;48761;42.680;23.312;2023-04-29T02:31:06;94830.97;;;9.63;54.71
62697;BME280;48761;42.680;23.312;2023-04-29T02:33:32;94821.78;;;9.41;54.71
62697;BME280;48761;42.680;23.312;2023-04-29T02:35:58;94843.63;;;9.72;54.94
62697;BME280;48761;42.680;23.312;2023-04-29T02:38:24;94845.00;;;9.65;54.96
62697;BME280;48761;42.680;23.312;2023-04-29T02:40:50;94840.75;;;9.62;55.00
62697;BME280;48761;42.680;23.312;2023-04-29T02:43:16;94808.00;;;9.49;54.74
62697;BME280;48761;42.680;23.312;2023-04-29T02:45:42;94847.41;;;9.68;54.93
62697;BME280;48761;42.680;23.312;2023-04-29T02:48:08;94807.38;;;9.58;54.49
62697;BME280;48761;42.680;23.312;2023-04-29T02:50:34;94839.88;;;9.62;54.86
62697;BME280;48761;42.680;23.312;2023-04-29T02:53:00;94790.44;;;9.33;54.49
62697;BME280;48761;42.680;23.312;2023-04-29T02:55:26;94844.69;;;9.70;54.69
62697;BME280;48761;42.680;23.312;2023-04-29T02:57:52;94847.28;;;9.57;54.60
62697;BME280;48761;42.680;23.312;2023-04-29T03:00:18;94857.53;;;9.63;54.46
62697;BME280;48761;42.680;23.312;2023-04-29T03:02:44;94848.22;;;9.56;54.23
62697;BME280;48761;42.680;23.312;2023-04-29T03:05:10;94842.59;;;9.47;54.18
62697;BME280;48761;42.680;23.312;2023-04-29T03:07:36;94829.06;;;9.24;54.96
62697;BME280;48761;42.680;23.312;2023-04-29T03:10:03;94868.69;;;8.98;56.33
62697;BME280;48761;42.680;23.312;2023-04-29T03:12:29;94855.09;;;8.75;56.42
62697;BME280;48761;42.680;23.312;2023-04-29T03:14:55;94859.63;;;9.02;56.04
62697;BME280;48761;42.680;23.312;2023-04-29T03:17:21;94858.28;;;9.10;55.89
62697;BME280;48761;42.680;23.312;2023-04-29T03:19:46;94866.66;;;9.16;55.65
62697;BME280;48761;42.680;23.312;2023-04-29T03:22:12;94861.63;;;9.26;55.35
62697;BME280;48761;42.680;23.312;2023-04-29T03:24:38;94870.81;;;9.35;54.75
62697;BME280;48761;42.680;23.312;2023-04-29T03:27:04;94875.81;;;9.25;54.95
62697;BME280;48761;42.680;23.312;2023-04-29T03:29:31;94885.13;;;9.18;55.35
62697;BME280;48761;42.680;23.312;2023-04-29T03:31:57;94893.88;;;9.20;55.06
62697;BME280;48761;42.680;23.312;2023-04-29T03:34:23;94892.53;;;9.27;55.50
62697;BME280;48761;42.680;23.312;2023-04-29T03:36:49;94893.41;;;9.41;55.50
62697;BME280;48761;42.680;23.312;2023-04-29T03:39:16;94874.88;;;9.26;55.30
62697;BME280;48761;42.680;23.312;2023-04-29T03:41:42;94897.03;;;9.25;55.56
62697;BME280;48761;42.680;23.312;2023-04-29T03:44:08;94890.69;;;9.28;55.27
62697;BME280;48761;42.680;23.312;2023-04-29T03:46:34;94893.00;;;9.19;55.46
62697;BME280;48761;42.680;23.312;2023-04-29T03:49:01;94884.75;;;9.24;55.64
62697;BME280;48761;42.680;23.312;2023-04-29T03:51:27;94889.00;;;9.27;55.07
62697;BME280;48761;42.680;23.312;2023-04-29T03:53:54;94856.06;;;9.16;55.52
62697;BME280;48761;42.680;23.312;2023-04-29T03:56:20;94873.94;;;9.27;54.73
62697;BME280;48761;42.680;23.312;2023-04-29T03:58:46;94875.25;;;9.35;54.44
62697;BME280;48761;42.680;23.312;2023-04-29T04:01:11;94888.34;;;9.23;54.66
62697;BME280;48761;42.680;23.312;2023-04-29T04:03:37;94888.00;;;9.15;54.63
62697;BME280;48761;42.680;23.312;2023-04-29T04:06:03;94889.75;;;9.29;54.19
62697;BME280;48761;42.680;23.312;2023-04-29T04:08:29;94863.19;;;9.01;54.56
62697;BME280;48761;42.680;23.312;2023-04-29T04:10:55;94897.44;;;9.19;54.52
62697;BME280;48761;42.680;23.312;2023-04-29T04:13:21;94881.09;;;9.12;54.60
62697;BME280;48761;42.680;23.312;2023-04-29T04:15:50;94842.59;;;8.92;54.45
62697;BME280;48761;42.680;23.312;2023-04-29T04:18:16;94868.88;;;8.95;54.72
62697;BME280;48761;42.680;23.312;2023-04-29T04:20:42;94899.44;;;9.15;55.19
62697;BME280;48761;42.680;23.312;2023-04-29T04:23:08;94896.75;;;8.73;56.09
62697;BME280;48761;42.680;23.312;2023-04-29T04:25:34;94890.19;;;8.93;55.86
62697;BME280;48761;42.680;23.312;2023-04-29T04:28:00;94874.41;;;8.92;55.90
62697;BME280;48761;42.680;23.312;2023-04-29T04:30:26;94882.38;;;8.77;56.11
62697;BME280;48761;42.680;23.312;2023-04-29T04:32:52;94895.56;;;8.33;58.10
62697;BME280;48761;42.680;23.312;2023-04-29T04:35:17;94888.22;;;8.38;57.66
62697;BME280;48761;42.680;23.312;2023-04-29T04:37:43;94893.31;;;8.56;56.87
62697;BME280;48761;42.680;23.312;2023-04-29T04:40:10;94903.09;;;8.70;61.11
62697;BME280;48761;42.680;23.312;2023-04-29T04:42:36;94884.63;;;8.83;57.43
62697;BME280;48761;42.680;23.312;2023-04-29T04:45:02;94893.13;;;9.03;56.26
62697;BME280;48761;42.680;23.312;2023-04-29T04:47:28;94894.16;;;9.43;55.69
62697;BME280;48761;42.680;23.312;2023-04-29T04:49:54;94911.19;;;9.53;55.74
62697;BME280;48761;42.680;23.312;2023-04-29T04:52:20;94894.06;;;9.72;55.56
62697;BME280;48761;42.680;23.312;2023-04-29T04:54:46;94903.88;;;9.85;54.98
62697;BME280;48761;42.680;23.312;2023-04-29T04:57:12;94858.03;;;9.68;54.16
62697;BME280;48761;42.680;23.312;2023-04-29T04:59:38;94891.75;;;9.81;54.08
62697;BME280;48761;42.680;23.312;2023-04-29T05:02:04;94885.63;;;9.52;54.07
62697;BME280;48761;42.680;23.312;2023-04-29T05:04:30;94883.66;;;8.40;57.27
62697;BME280;48761;42.680;23.312;2023-04-29T05:06:56;94877.28;;;9.16;55.85
62697;BME280;48761;42.680;23.312;2023-04-29T05:09:22;94876.00;;;9.37;55.17
62697;BME280;48761;42.680;23.312;2023-04-29T05:11:48;94879.56;;;9.63;54.94
62697;BME280;48761;42.680;23.312;2023-04-29T05:14:14;94879.34;;;9.53;54.78
62697;BME280;48761;42.680;23.312;2023-04-29T05:16:40;94866.78;;;9.43;55.12
62697;BME280;48761;42.680;23.312;2023-04-29T05:19:06;94868.38;;;8.60;56.60
62697;BME280;48761;42.680;23.312;2023-04-29T05:21:32;94818.56;;;8.22;57.11
62697;BME280;48761;42.680;23.312;2023-04-29T05:23:58;94816.31;;;8.30;57.04
62697;BME280;48761;42.680;23.312;2023-04-29T05:26:24;94866.78;;;9.00;56.43
62697;BME280;48761;42.680;23.312;2023-04-29T05:28:50;94832.09;;;9.18;55.50
62697;BME280;48761;42.680;23.312;2023-04-29T05:31:16;94866.78;;;9.15;56.04
62697;BME280;48761;42.680;23.312;2023-04-29T05:33:42;94834.06;;;8.87;56.16
62697;BME280;48761;42.680;23.312;2023-04-29T05:36:08;94844.28;;;8.93;55.95
62697;BME280;48761;42.680;23.312;2023-04-29T05:38:34;94862.66;;;8.81;56.38
62697;BME280;48761;42.680;23.312;2023-04-29T05:41:00;94840.09;;;9.03;55.63
62697;BME280;48761;42.680;23.312;2023-04-29T05:43:28;94795.97;;;8.60;55.64
62697;BME280;48761;42.680;23.312;2023-04-29T05:45:59;94840.69;;;8.94;55.74
62697;BME280;48761;42.680;23.312;2023-04-29T05:48:31;94795.28;;;8.56;56.13
62697;BME280;48761;42.680;23.312;2023-04-29T05:51:01;94835.47;;;9.35;54.75
62697;BME280;48761;42.680;23.312;2023-04-29T05:53:29;94841.69;;;9.34;55.68
62697;BME280;48761;42.680;23.312;2023-04-29T05:55:55;94833.13;;;9.84;54.01
62697;BME280;48761;42.680;23.312;2023-04-29T06:00:55;94840.34;;;11.49;51.51
62697;BME280;48761;42.680;23.312;2023-04-29T06:06:15;94804.19;;;11.82;47.53
62697;BME280;48761;42.680;23.312;2023-04-29T06:11:19;94806.78;;;11.35;48.55
62697;BME280;48761;42.680;23.312;2023-04-29T06:13:45;94841.94;;;13.27;45.95
62697;BME280;48761;42.680;23.312;2023-04-29T06:16:11;94824.38;;;13.69;46.41
62697;BME280;48761;42.680;23.312;2023-04-29T06:19:12;94854.97;;;13.53;45.45
62697;BME280;48761;42.680;23.312;2023-04-29T06:22:43;94847.41;;;13.70;44.34
62697;BME280;48761;42.680;23.312;2023-04-29T06:26:30;94815.91;;;13.52;45.39
62697;BME280;48761;42.680;23.312;2023-04-29T06:31:43;94820.59;;;14.36;42.57
62697;BME280;48761;42.680;23.312;2023-04-29T06:37:26;94848.63;;;14.63;41.85
62697;BME280;48761;42.680;23.312;2023-04-29T06:39:55;94855.34;;;14.57;42.25
62697;BME280;48761;42.680;23.312;2023-04-29T06:43:06;94807.75;;;14.61;41.01
62697;BME280;48761;42.680;23.312;2023-04-29T06:45:34;94835.34;;;14.09;42.28
62697;BME280;48761;42.680;23.312;2023-04-29T06:51:21;94800.72;;;16.02;38.53
62697;BME280;48761;42.680;23.312;2023-04-29T06:53:50;94831.88;;;14.93;39.84
62697;BME280;48761;42.680;23.312;2023-04-29T06:56:20;94853.47;;;15.01;41.11
62697;BME280;48761;42.680;23.312;2023-04-29T06:58:49;94795.34;;;13.97;42.03
62697;BME280;48761;42.680;23.312;2023-04-29T07:08:14;94802.69;;;13.06;43.15
62697;BME280;48761;42.680;23.312;2023-04-29T07:11:27;94846.41;;;13.83;42.65
62697;BME280;48761;42.680;23.312;2023-04-29T07:18:14;94779.81;;;13.70;41.79
62697;BME280;48761;42.680;23.312;2023-04-29T07:21:04;94767.38;;;13.14;42.75
62697;BME280;48761;42.680;23.312;2023-04-29T07:24:00;94810.88;;;14.66;41.57
62697;BME280;48761;42.680;23.312;2023-04-29T07:30:17;94819.59;;;16.79;37.51
62697;BME280;48761;42.680;23.312;2023-04-29T07:32:48;94792.28;;;16.94;37.10
62697;BME280;48761;42.680;23.312;2023-04-29T07:35:14;94805.09;;;17.56;36.50
62697;BME280;48761;42.680;23.312;2023-04-29T07:37:41;94845.47;;;17.83;35.24
62697;BME280;48761;42.680;23.312;2023-04-29T07:40:35;94773.22;;;17.62;34.67
62697;BME280;48761;42.680;23.312;2023-04-29T07:44:02;94805.66;;;18.05;34.46
62697;BME280;48761;42.680;23.312;2023-04-29T07:46:52;94777.13;;;17.49;35.19
62697;BME280;48761;42.680;23.312;2023-04-29T07:49:20;94828.59;;;17.26;36.16
62697;BME280;48761;42.680;23.312;2023-04-29T07:52:10;94790.31;;;17.24;35.49
62697;BME280;48761;42.680;23.312;2023-04-29T07:54:38;94824.00;;;17.08;36.16
62697;BME280;48761;42.680;23.312;2023-04-29T07:57:22;94771.66;;;15.48;37.62
62697;BME280;48761;42.680;23.312;2023-04-29T08:00:09;94793.59;;;16.41;36.71
62697;BME280;48761;42.680;23.312;2023-04-29T08:02:38;94807.78;;;16.13;37.82
62697;BME280;48761;42.680;23.312;2023-04-29T08:05:08;94800.72;;;15.83;38.40
62697;BME280;48761;42.680;23.312;2023-04-29T08:07:35;94818.22;;;15.57;38.36
62697;BME280;48761;42.680;23.312;2023-04-29T08:10:01;94788.56;;;15.88;37.94
62697;BME280;48761;42.680;23.312;2023-04-29T08:12:27;94805.25;;;16.12;37.57
62697;BME280;48761;42.680;23.312;2023-04-29T08:14:53;94807.22;;;16.10;38.52
62697;BME280;48761;42.680;23.312;2023-04-29T08:17:21;94767.84;;;16.20;36.93
62697;BME280;48761;42.680;23.312;2023-04-29T08:19:47;94787.38;;;16.51;35.77
62697;BME280;48761;42.680;23.312;2023-04-29T08:22:13;94809.47;;;15.85;37.05
62697;BME280;48761;42.680;23.312;2023-04-29T08:24:39;94802.53;;;16.22;36.69
62697;BME280;48761;42.680;23.312;2023-04-29T08:27:05;94803.28;;;15.74;37.26
62697;BME280;48761;42.680;23.312;2023-04-29T08:29:31;94800.16;;;16.09;37.01
62697;BME280;48761;42.680;23.312;2023-04-29T08:31:57;94791.84;;;16.60;36.04
62697;BME280;48761;42.680;23.312;2023-04-29T08:34:24;94792.28;;;17.22;35.23
62697;BME280;48761;42.680;23.312;2023-04-29T08:36:50;94770.75;;;17.50;34.31
62697;BME280;48761;42.680;23.312;2023-04-29T08:39:16;94769.38;;;17.46;34.87
62697;BME280;48761;42.680;23.312;2023-04-29T08:41:42;94793.06;;;18.51;33.67
62697;BME280;48761;42.680;23.312;2023-04-29T08:44:08;94755.13;;;17.90;32.57
62697;BME280;48761;42.680;23.312;2023-04-29T08:46:34;94771.09;;;16.90;33.29
62697;BME280;48761;42.680;23.312;2023-04-29T08:49:03;94789.16;;;16.98;33.85
62697;BME280;48761;42.680;23.312;2023-04-29T08:51:30;94776.53;;;17.09;34.58
62697;BME280;48761;42.680;23.312;2023-04-29T08:53:56;94789.19;;;16.88;34.55
62697;BME280;48761;42.680;23.312;2023-04-29T08:56:21;94785.91;;;16.95;34.34
62697;BME280;48761;42.680;23.312;2023-04-29T08:58:51;94769.06;;;17.31;34.09
62697;BME280;48761;42.680;23.312;2023-04-29T09:01:20;94781.88;;;17.92;33.42
62697;BME280;48761;42.680;23.312;2023-04-29T09:03:49;94773.78;;;18.10;33.32
62697;BME280;48761;42.680;23.312;2023-04-29T09:06:19;94739.03;;;18.17;33.25
62697;BME280;48761;42.680;23.312;2023-04-29T09:08:45;94772.13;;;18.18;33.09
62697;BME280;48761;42.680;23.312;2023-04-29T09:11:11;94748.59;;;17.93;33.65
62697;BME280;48761;42.680;23.312;2023-04-29T09:13:38;94761.34;;;18.28;33.40
62697;BME280;48761;42.680;23.312;2023-04-29T09:16:09;94759.53;;;18.18;33.05
62697;BME280;48761;42.680;23.312;2023-04-29T09:18:46;94749.34;;;17.77;33.32
62697;BME280;48761;42.680;23.312;2023-04-29T09:21:26;94765.06;;;17.35;34.08
62697;BME280;48761;42.680;23.312;2023-04-29T09:23:54;94770.41;;;17.17;34.46
62697;BME280;48761;42.680;23.312;2023-04-29T09:26:20;94767.63;;;17.08;34.75
62697;BME280;48761;42.680;23.312;2023-04-29T09:28:47;94762.94;;;17.10;34.88
62697;BME280;48761;42.680;23.312;2023-04-29T09:31:30;94763.38;;;17.89;34.44
62697;BME280;48761;42.680;23.312;2023-04-29T09:33:56;94748.09;;;18.16;33.48
62697;BME280;48761;42.680;23.312;2023-04-29T09:44:32;94682.19;;;18.82;31.90
62697;BME280;48761;42.680;23.312;2023-04-29T09:47:03;94707.41;;;18.37;31.60
62697;BME280;48761;42.680;23.312;2023-04-29T09:49:40;94705.72;;;18.10;32.48
62697;BME280;48761;42.680;23.312;2023-04-29T09:52:12;94682.03;;;18.40;32.20
62697;BME280;48761;42.680;23.312;2023-04-29T09:54:40;94728.00;;;18.90;32.70
62697;BME280;48761;42.680;23.312;2023-04-29T09:57:08;94711.28;;;19.22;32.13
62697;BME280;48761;42.680;23.312;2023-04-29T09:59:38;94715.91;;;19.03;31.61
62697;BME280;48761;42.680;23.312;2023-04-29T10:02:16;94718.63;;;19.11;31.11
62697;BME280;48761;42.680;23.312;2023-04-29T10:04:47;94671.41;;;18.82;31.23
62697;BME280;48761;42.680;23.312;2023-04-29T10:07:14;94696.28;;;18.67;31.29
62697;BME280;48761;42.680;23.312;2023-04-29T10:09:41;94685.28;;;17.72;31.43
62697;BME280;48761;42.680;23.312;2023-04-29T10:12:08;94644.81;;;17.29;32.16
62697;BME280;48761;42.680;23.312;2023-04-29T10:14:41;94637.81;;;17.54;32.27
62697;BME280;48761;42.680;23.312;2023-04-29T10:20:36;94675.88;;;18.21;32.33
62697;BME280;48761;42.680;23.312;2023-04-29T10:23:06;94697.28;;;18.04;31.06
62697;BME280;48761;42.680;23.312;2023-04-29T10:25:34;94700.66;;;18.07;31.87
62697;BME280;48761;42.680;23.312;2023-04-29T10:28:02;94655.84;;;17.89;31.46
62697;BME280;48761;42.680;23.312;2023-04-29T10:30:30;94672.59;;;17.83;31.87
62697;BME280;48761;42.680;23.312;2023-04-29T10:32:58;94676.06;;;18.01;32.17
62697;BME280;48761;42.680;23.312;2023-04-29T10:35:26;94691.41;;;18.28;31.96
62697;BME280;48761;42.680;23.312;2023-04-29T10:37:55;94693.88;;;18.02;32.90
62697;BME280;48761;42.680;23.312;2023-04-29T10:40:34;94692.78;;;17.87;32.88
62697;BME280;48761;42.680;23.312;2023-04-29T10:43:01;94692.03;;;17.76;33.18
62697;BME280;48761;42.680;23.312;2023-04-29T10:45:29;94673.16;;;17.50;33.81
62697;BME280;48761;42.680;23.312;2023-04-29T10:50:28;94663.44;;;17.67;32.45
62697;BME280;48761;42.680;23.312;2023-04-29T10:52:54;94661.81;;;17.83;31.95
62697;BME280;48761;42.680;23.312;2023-04-29T10:55:22;94673.25;;;18.73;46.18
62697;BME280;48761;42.680;23.312;2023-04-29T10:57:48;94674.03;;;18.57;39.88
62697;BME280;48761;42.680;23.312;2023-04-29T11:00:21;94672.00;;;18.59;37.39
62697;BME280;48761;42.680;23.312;2023-04-29T11:02:47;94681.47;;;18.71;32.88
62697;BME280;48761;42.680;23.312;2023-04-29T11:05:31;94637.59;;;18.28;31.41
62697;BME280;48761;42.680;23.312;2023-04-29T11:08:22;94675.56;;;18.24;32.06
62697;BME280;48761;42.680;23.312;2023-04-29T11:11:05;94624.00;;;17.76;33.15
62697;BME280;48761;42.680;23.312;2023-04-29T11:16:34;94631.16;;;17.93;30.94
62697;BME280;48761;42.680;23.312;2023-04-29T11:19:24;94622.19;;;18.11;29.87
62697;BME280;48761;42.680;23.312;2023-04-29T11:22:03;94615.94;;;18.11;29.73
62697;BME280;48761;42.680;23.312;2023-04-29T11:24:34;94649.84;;;18.22;29.75
62697;BME280;48761;42.680;23.312;2023-04-29T11:27:01;94637.06;;;17.97;29.33
62697;BME280;48761;42.680;23.312;2023-04-29T11:29:31;94669.53;;;17.77;29.36
62697;BME280;48761;42.680;23.312;2023-04-29T11:32:00;94658.19;;;17.65;27.47
62697;BME280;48761;42.680;23.312;2023-04-29T11:34:26;94660.16;;;17.81;27.71
62697;BME280;48761;42.680;23.312;2023-04-29T11:36:53;94625.94;;;17.39;28.60
62697;BME280;48761;42.680;23.312;2023-04-29T11:39:19;94661.81;;;17.83;28.92
62697;BME280;48761;42.680;23.312;2023-04-29T11:41:45;94624.97;;;17.48;29.53
62697;BME280;48761;42.680;23.312;2023-04-29T11:44:11;94648.13;;;17.67;29.92
62697;BME280;48761;42.680;23.312;2023-04-29T11:46:37;94657.72;;;17.70;29.81
62697;BME280;48761;42.680;23.312;2023-04-29T11:49:03;94640.72;;;17.43;29.02
62697;BME280;48761;42.680;23.312;2023-04-29T11:51:29;94624.00;;;17.49;29.21
62697;BME280;48761;42.680;23.312;2023-04-29T11:53:55;94637.91;;;17.71;29.27
62697;BME280;48761;42.680;23.312;2023-04-29T11:56:22;94639.25;;;17.48;29.94
62697;BME280;48761;42.680;23.312;2023-04-29T11:58:48;94667.56;;;17.88;29.29
62697;BME280;48761;42.680;23.312;2023-04-29T12:01:14;94670.03;;;17.54;29.77
62697;BME280;48761;42.680;23.312;2023-04-29T12:03:42;94651.34;;;17.26;31.00
62697;BME280;48761;42.680;23.312;2023-04-29T12:06:08;94623.09;;;17.22;31.09
62697;BME280;48761;42.680;23.312;2023-04-29T12:08:37;94597.38;;;17.19;30.82
62697;BME280;48761;42.680;23.312;2023-04-29T12:11:05;94634.69;;;17.22;31.61
62697;BME280;48761;42.680;23.312;2023-04-29T12:13:32;94649.81;;;17.42;31.57
62697;BME280;48761;42.680;23.312;2023-04-29T12:15:58;94644.09;;;17.45;31.63
62697;BME280;48761;42.680;23.312;2023-04-29T12:18:25;94608.84;;;17.21;32.29
62697;BME280;48761;42.680;23.312;2023-04-29T12:20:52;94643.09;;;17.64;31.93
62697;BME280;48761;42.680;23.312;2023-04-29T12:23:19;94629.09;;;17.61;32.04
62697;BME280;48761;42.680;23.312;2023-04-29T12:25:58;94649.72;;;17.78;31.72
62697;BME280;48761;42.680;23.312;2023-04-29T12:28:24;94638.97;;;17.78;31.41
62697;BME280;48761;42.680;23.312;2023-04-29T12:30:51;94641.22;;;17.91;31.75
62697;BME280;48761;42.680;23.312;2023-04-29T12:33:19;94639.28;;;17.75;32.86
62697;BME280;48761;42.680;23.312;2023-04-29T12:36:14;94609.44;;;17.60;33.31
62697;BME280;48761;42.680;23.312;2023-04-29T12:38:35;94626.56;;;17.86;32.85
62697;BME280;48761;42.680;23.312;2023-04-29T12:41:01;94606.72;;;17.78;32.95
62697;BME280;48761;42.680;23.312;2023-04-29T12:43:31;94639.78;;;18.06;33.09
62697;BME280;48761;42.680;23.312;2023-04-29T12:46:07;94614.22;;;18.01;33.07
62697;BME280;48761;42.680;23.312;2023-04-29T12:48:35;94586.81;;;17.98;33.02
62697;BME280;48761;42.680;23.312;2023-04-29T12:51:01;94592.34;;;17.96;32.76
62697;BME280;48761;42.680;23.312;2023-04-29T12:53:30;94625.44;;;18.23;33.03
62697;BME280;48761;42.680;23.312;2023-04-29T12:55:57;94629.44;;;18.19;32.50
62697;BME280;48761;42.680;23.312;2023-04-29T12:58:23;94636.31;;;18.13;33.02
62697;BME280;48761;42.680;23.312;2023-04-29T13:00:49;94623.88;;;18.12;32.01
62697;BME280;48761;42.680;23.312;2023-04-29T13:03:15;94626.13;;;18.25;31.96
62697;BME280;48761;42.680;23.312;2023-04-29T13:05:41;94625.50;;;18.32;32.01
62697;BME280;48761;42.680;23.312;2023-04-29T13:08:07;94623.97;;;18.29;31.98
62697;BME280;48761;42.680;23.312;2023-04-29T13:10:35;94606.09;;;17.93;32.83
62697;BME280;48761;42.680;23.312;2023-04-29T13:13:01;94586.78;;;17.89;33.63
62697;BME280;48761;42.680;23.312;2023-04-29T13:15:27;94628.19;;;18.32;33.63
62697;BME280;48761;42.680;23.312;2023-04-29T13:17:53;94626.84;;;18.28;33.16
62697;BME280;48761;42.680;23.312;2023-04-29T13:20:19;94613.31;;;18.19;34.81
62697;BME280;48761;42.680;23.312;2023-04-29T13:22:45;94597.56;;;18.33;33.68
62697;BME280;48761;42.680;23.312;2023-04-29T13:25:11;94614.28;;;18.53;34.05
62697;BME280;48761;42.680;23.312;2023-04-29T13:27:37;94594.38;;;18.29;34.18
62697;BME280;48761;42.680;23.312;2023-04-29T13:30:05;94579.09;;;18.38;33.22
62697;BME280;48761;42.680;23.312;2023-04-29T13:32:31;94590.22;;;18.35;33.01
62697;BME280;48761;42.680;23.312;2023-04-29T13:34:57;94616.00;;;18.19;34.05
62697;BME280;48761;42.680;23.312;2023-04-29T13:37:23;94583.22;;;17.54;34.29
62697;BME280;48761;42.680;23.312;2023-04-29T13:39:49;94612.38;;;18.02;34.17
62697;BME280;48761;42.680;23.312;2023-04-29T13:42:15;94606.72;;;17.78;35.06
62697;BME280;48761;42.680;23.312;2023-04-29T13:44:41;94583.53;;;17.51;35.24
62697;BME280;48761;42.680;23.312;2023-04-29T13:47:07;94610.72;;;17.74;35.61
62697;BME280;48761;42.680;23.312;2023-04-29T13:49:33;94602.13;;;18.06;35.13
62697;BME280;48761;42.680;23.312;2023-04-29T13:51:59;94612.00;;;18.23;35.38
62697;BME280;48761;42.680;23.312;2023-04-29T13:54:25;94593.16;;;18.23;35.43
62697;BME280;48761;42.680;23.312;2023-04-29T13:56:50;94599.31;;;18.07;36.60